createdAt,value
2018-02-19T00:00:09.522Z,23.08
2018-02-19T00:02:37.115Z,18.65
2018-02-19T00:05:04.889Z,19.80
2018-02-19T00:07:32.454Z,25.48
2018-02-19T00:10:00.021Z,22.60
2018-02-19T00:12:27.818Z,24.15
2018-02-19T00:14:55.497Z,24.45
2018-02-19T00:17:23.942Z,21.17
2018-02-19T00:19:51.538Z,21.95
2018-02-19T00:22:19.140Z,22.87
2018-02-19T00:24:46.703Z,18.15
2018-02-19T00:27:14.271Z,24.27
2018-02-19T00:29:41.855Z,21.37
2018-02-19T00:32:10.271Z,20.48
2018-02-19T00:34:37.959Z,22.10
2018-02-19T00:37:05.539Z,21.48
2018-02-19T00:39:33.251Z,23.27
2018-02-19T00:42:00.835Z,26.17
2018-02-19T00:44:28.422Z,23.10
2018-02-19T00:46:55.988Z,21.73
2018-02-19T00:49:23.576Z,24.45
2018-02-19T00:51:51.167Z,24.87
2018-02-19T00:54:18.727Z,22.40
2018-02-19T00:56:46.307Z,20.45
2018-02-19T00:59:13.900Z,19.58
2018-02-19T01:01:42.301Z,23.23
2018-02-19T01:04:09.850Z,25.08
2018-02-19T01:06:37.422Z,25.33
2018-02-19T01:09:05.011Z,24.20
2018-02-19T01:11:32.562Z,27.23
2018-02-19T01:14:00.163Z,26.12
2018-02-19T01:16:28.550Z,27.35
2018-02-19T01:18:56.936Z,26.33
2018-02-19T01:21:24.543Z,25.45
2018-02-19T01:23:52.330Z,30.17
2018-02-19T01:26:19.919Z,25.50
2018-02-19T01:28:47.478Z,22.17
2018-02-19T01:31:15.075Z,27.80
2018-02-19T01:33:42.641Z,20.88
2018-02-19T01:36:10.238Z,28.90
2018-02-19T01:38:38.582Z,29.63
2018-02-19T01:41:06.182Z,24.77
2018-02-19T01:43:33.783Z,30.70
2018-02-19T01:46:01.387Z,28.95
2018-02-19T01:48:29.881Z,24.10
2018-02-19T01:50:57.434Z,27.60
2018-02-19T01:53:25.803Z,25.55
2018-02-19T01:55:54.142Z,28.85
2018-02-19T01:58:21.731Z,25.23
2018-02-19T02:00:50.063Z,26.45
2018-02-19T02:03:17.654Z,26.52
2018-02-19T02:05:45.226Z,25.08
2018-02-19T02:08:13.577Z,27.40
2018-02-19T02:10:41.135Z,24.58
2018-02-19T02:13:08.734Z,32.42
2018-02-19T02:15:37.242Z,25.42
2018-02-19T02:18:04.859Z,29.35
2018-02-19T02:20:33.211Z,23.55
2018-02-19T02:23:00.790Z,27.25
2018-02-19T02:25:28.554Z,25.00
2018-02-19T02:27:56.110Z,29.20
2018-02-19T02:30:23.719Z,24.98
2018-02-19T02:32:51.270Z,25.35
2018-02-19T02:35:18.830Z,28.48
2018-02-19T02:37:46.423Z,29.12
2018-02-19T02:40:15.521Z,28.15
2018-02-19T02:42:43.121Z,21.65
2018-02-19T02:45:11.577Z,26.08
2018-02-19T02:47:39.173Z,26.02
2018-02-19T02:50:06.756Z,28.30
2018-02-19T02:52:34.387Z,24.95
2018-02-19T02:55:02.047Z,22.95
2018-02-19T02:57:29.854Z,22.05
2018-02-19T02:59:57.419Z,25.00
2018-02-19T03:02:24.983Z,26.90
2018-02-19T03:04:52.570Z,24.95
2018-02-19T03:07:20.906Z,24.87
2018-02-19T03:09:48.635Z,29.50
2018-02-19T03:12:16.330Z,26.52
2018-02-19T03:14:43.928Z,31.02
2018-02-19T03:17:12.246Z,26.95
2018-02-19T03:19:39.830Z,30.40
2018-02-19T03:22:07.402Z,27.83
2018-02-19T03:24:35.074Z,23.92
2018-02-19T03:27:03.472Z,26.10
2018-02-19T03:29:31.026Z,29.70
2018-02-19T03:31:58.647Z,30.90
2018-02-19T03:34:26.352Z,21.48
2018-02-19T03:36:54.695Z,29.20
2018-02-19T03:39:22.246Z,34.13
2018-02-19T03:41:49.864Z,29.42
2018-02-19T03:44:17.575Z,27.50
2018-02-19T03:46:45.225Z,21.15
2018-02-19T03:49:12.810Z,24.35
2018-02-19T03:51:41.302Z,32.63
2018-02-19T03:54:08.907Z,21.92
2018-02-19T03:56:36.496Z,28.25
2018-02-19T03:59:04.251Z,24.58
2018-02-19T04:01:33.323Z,23.42
2018-02-19T04:04:00.899Z,27.33
2018-02-19T04:06:28.671Z,25.77
2018-02-19T04:08:56.383Z,27.00
2018-02-19T04:11:23.951Z,22.00
2018-02-19T04:13:51.506Z,23.75
2018-02-19T04:16:19.122Z,23.70
2018-02-19T04:18:47.543Z,26.05
2018-02-19T04:21:15.323Z,19.83
2018-02-19T04:23:42.883Z,28.80
2018-02-19T04:26:10.577Z,25.80
2018-02-19T04:28:38.135Z,27.83
2018-02-19T04:31:05.694Z,29.55
2018-02-19T04:33:34.059Z,23.27
2018-02-19T04:36:01.729Z,23.80
2018-02-19T04:38:29.487Z,22.20
2018-02-19T04:40:57.049Z,27.58
2018-02-19T04:43:24.649Z,28.58
2018-02-19T04:45:52.210Z,23.90
2018-02-19T04:48:19.818Z,17.58
2018-02-19T04:50:47.375Z,22.08
2018-02-19T04:53:15.088Z,24.27
2018-02-19T04:55:42.688Z,23.58
2018-02-19T04:58:10.240Z,16.42
2018-02-19T05:00:37.826Z,21.05
2018-02-19T05:03:06.230Z,21.20
2018-02-19T05:05:33.851Z,23.12
2018-02-19T05:08:01.414Z,22.52
2018-02-19T05:10:29.022Z,28.87
2018-02-19T05:12:56.583Z,19.65
2018-02-19T05:15:24.151Z,22.00
2018-02-19T05:17:51.820Z,26.17
2018-02-19T05:20:19.410Z,25.67
2018-02-19T05:22:47.002Z,21.60
2018-02-19T05:25:14.558Z,20.67
2018-02-19T05:27:42.156Z,22.98
2018-02-19T05:30:09.728Z,10.73
2018-02-19T05:32:37.286Z,14.82
2018-02-19T05:35:04.870Z,26.85
2018-02-19T05:37:33.194Z,19.30
2018-02-19T05:40:00.906Z,22.00
2018-02-19T05:42:29.249Z,22.13
2018-02-19T05:44:57.823Z,21.65
2018-02-19T05:47:25.394Z,19.25
2018-02-19T05:49:52.991Z,19.87
2018-02-19T05:52:21.430Z,18.20
2018-02-19T05:54:49.079Z,19.20
2018-02-19T05:57:16.690Z,19.50
2018-02-19T05:59:45.091Z,23.73
2018-02-19T06:02:12.687Z,23.52
2018-02-19T06:04:40.263Z,23.73
2018-02-19T06:07:07.851Z,17.23
2018-02-19T06:09:36.177Z,20.20
2018-02-19T06:12:03.863Z,20.17
2018-02-19T06:14:31.528Z,23.27
2018-02-19T06:16:59.199Z,23.52
2018-02-19T06:19:27.762Z,26.33
2018-02-19T06:21:55.330Z,24.95
2018-02-19T06:24:22.922Z,28.92
2018-02-19T06:26:50.491Z,25.55
2018-02-19T06:29:18.056Z,20.17
2018-02-19T06:31:45.846Z,19.60
2018-02-19T06:34:13.439Z,22.17
2018-02-19T06:36:41.775Z,26.95
2018-02-19T06:39:09.354Z,28.62
2018-02-19T06:41:36.978Z,22.40
2018-02-19T06:44:04.543Z,24.65
2018-02-19T06:46:32.099Z,24.35
2018-02-19T06:48:59.837Z,20.50
2018-02-19T06:51:27.417Z,26.10
2018-02-19T06:53:55.050Z,25.40
2018-02-19T06:56:22.627Z,23.60
2018-02-19T06:58:50.218Z,24.75
2018-02-19T07:01:17.779Z,19.33
2018-02-19T07:03:45.371Z,23.83
2018-02-19T07:06:13.809Z,22.08
2018-02-19T07:08:41.546Z,25.35
2018-02-19T07:11:09.173Z,19.23
2018-02-19T07:13:37.515Z,22.33
2018-02-19T07:16:05.101Z,25.20
2018-02-19T07:18:33.478Z,24.95
2018-02-19T07:21:01.831Z,24.50
2018-02-19T07:23:29.402Z,25.90
2018-02-19T07:25:57.000Z,26.23
2018-02-19T07:28:24.580Z,21.87
2018-02-19T07:30:52.128Z,22.30
2018-02-19T07:33:19.711Z,17.17
2018-02-19T07:35:47.341Z,27.52
2018-02-19T07:38:14.943Z,18.60
2018-02-19T07:40:42.511Z,17.80
2018-02-19T07:43:10.254Z,19.80
2018-02-19T07:45:37.825Z,21.98
2018-02-19T07:48:05.500Z,24.77
2018-02-19T07:50:33.826Z,22.98
2018-02-19T07:53:01.398Z,20.50
2018-02-19T07:55:29.002Z,22.67
2018-02-19T07:57:57.339Z,22.20
2018-02-19T08:00:24.950Z,26.80
2018-02-19T08:02:52.518Z,25.80
2018-02-19T08:05:20.243Z,27.85
2018-02-19T08:07:47.867Z,29.65
2018-02-19T08:10:15.403Z,25.70
2018-02-19T08:12:43.199Z,29.42
2018-02-19T08:15:10.754Z,28.15
2018-02-19T08:17:38.443Z,28.70
2018-02-19T08:20:06.091Z,26.90
2018-02-19T08:22:33.810Z,22.40
2018-02-19T08:25:01.371Z,21.27
2018-02-19T08:27:28.943Z,24.25
2018-02-19T08:29:56.540Z,23.50
2018-02-19T08:32:24.155Z,21.17
2018-02-19T08:34:51.750Z,24.50
2018-02-19T08:37:19.315Z,21.87
2018-02-19T08:39:46.904Z,25.45
2018-02-19T08:42:14.463Z,27.98
2018-02-19T08:44:42.059Z,25.37
2018-02-19T08:47:09.614Z,23.50
2018-02-19T08:49:37.222Z,23.50
2018-02-19T08:52:05.550Z,24.50
2018-02-19T08:54:33.170Z,33.10
2018-02-19T08:57:01.531Z,27.42
2018-02-19T08:59:30.009Z,27.83
2018-02-19T09:01:58.379Z,40.50
2018-02-19T09:04:26.723Z,30.67
2018-02-19T09:06:54.384Z,29.95
2018-02-19T09:09:21.966Z,36.42
2018-02-19T09:11:51.105Z,30.42
2018-02-19T09:14:18.673Z,30.25
2018-02-19T09:16:46.283Z,29.50
2018-02-19T09:19:13.918Z,29.02
2018-02-19T09:21:41.571Z,28.87
2018-02-19T09:24:09.175Z,30.95
2018-02-19T09:26:36.736Z,33.25
2018-02-19T09:29:05.166Z,34.63
2018-02-19T09:31:32.882Z,36.58
2018-02-19T09:34:01.398Z,29.90
2018-02-19T09:36:28.951Z,33.92
2018-02-19T09:38:56.552Z,35.35
2018-02-19T09:41:24.139Z,29.42
2018-02-19T09:43:52.550Z,33.88
2018-02-19T09:46:20.167Z,36.25
2018-02-19T09:48:48.602Z,33.50
2018-02-19T09:51:16.199Z,31.95
2018-02-19T09:53:43.891Z,28.15
2018-02-19T09:56:11.488Z,30.33
2018-02-19T09:58:39.057Z,30.27
2018-02-19T10:01:06.650Z,36.78
2018-02-19T10:03:34.983Z,36.15
2018-02-19T10:06:02.591Z,27.02
2018-02-19T10:08:30.958Z,29.42
2018-02-19T10:10:59.282Z,25.40
2018-02-19T10:13:26.866Z,32.45
2018-02-19T10:15:54.424Z,29.85
2018-02-19T10:18:22.018Z,30.90
2018-02-19T10:20:50.363Z,27.10
2018-02-19T10:23:17.983Z,27.48
2018-02-19T10:25:45.551Z,35.33
2018-02-19T10:28:13.122Z,29.42
2018-02-19T10:30:40.702Z,41.47
2018-02-19T10:33:08.259Z,27.75
2018-02-19T10:35:35.866Z,34.05
2018-02-19T10:38:03.422Z,33.47
2018-02-19T10:40:31.163Z,28.10
2018-02-19T10:42:59.484Z,30.00
2018-02-19T10:45:27.047Z,29.35
2018-02-19T10:47:54.842Z,29.20
2018-02-19T10:50:22.408Z,27.80
2018-02-19T10:52:50.016Z,32.75
2018-02-19T10:55:17.599Z,27.87
2018-02-19T10:57:45.206Z,32.85
2018-02-19T11:00:13.625Z,31.67
2018-02-19T11:02:41.226Z,30.67
2018-02-19T11:05:08.784Z,30.73
2018-02-19T11:07:37.223Z,37.78
2018-02-19T11:10:04.851Z,32.38
2018-02-19T11:12:32.618Z,39.53
2018-02-19T11:15:00.226Z,28.67
2018-02-19T11:17:27.874Z,25.08
2018-02-19T11:19:55.466Z,30.27
2018-02-19T11:22:23.832Z,29.33
2018-02-19T11:24:51.454Z,32.17
2018-02-19T11:27:19.104Z,25.80
2018-02-19T11:29:46.771Z,27.42
2018-02-19T11:32:14.346Z,27.60
2018-02-19T11:34:41.951Z,27.08
2018-02-19T11:37:10.275Z,29.02
2018-02-19T11:39:37.835Z,28.35
2018-02-19T11:42:05.440Z,24.23
2018-02-19T11:44:33.914Z,25.67
2018-02-19T11:47:02.391Z,27.42
2018-02-19T11:49:30.843Z,29.10
2018-02-19T11:51:58.418Z,31.60
2018-02-19T11:54:26.047Z,26.67
2018-02-19T11:56:53.624Z,31.35
2018-02-19T11:59:21.215Z,25.65
2018-02-19T12:01:49.560Z,33.55
2018-02-19T12:04:17.200Z,25.12
2018-02-19T12:06:44.911Z,31.48
2018-02-19T12:09:13.820Z,32.28
2018-02-19T12:11:41.379Z,28.45
2018-02-19T12:14:08.935Z,32.75
2018-02-19T12:16:36.530Z,30.40
2018-02-19T12:19:04.087Z,27.85
2018-02-19T12:21:31.697Z,31.62
2018-02-19T12:24:00.040Z,27.10
2018-02-19T12:26:27.668Z,29.30
2018-02-19T12:28:55.235Z,31.12
2018-02-19T12:31:22.831Z,26.92
2018-02-19T12:33:50.535Z,28.33
2018-02-19T12:36:18.192Z,26.77
2018-02-19T12:38:46.627Z,29.80
2018-02-19T12:41:14.402Z,29.40
2018-02-19T12:43:42.017Z,27.23
2018-02-19T12:46:09.614Z,39.20
2018-02-19T12:48:37.206Z,33.90
2018-02-19T12:51:04.799Z,27.50
2018-02-19T12:53:32.412Z,29.63
2018-02-19T12:56:00.732Z,35.85
2018-02-19T12:58:28.447Z,28.50
2018-02-19T13:00:56.825Z,32.03
2018-02-19T13:03:25.212Z,30.98
2018-02-19T13:05:53.702Z,31.20
2018-02-19T13:08:21.284Z,29.30
2018-02-19T13:10:48.883Z,27.75
2018-02-19T13:13:16.439Z,27.90
2018-02-19T13:15:44.090Z,26.25
2018-02-19T13:18:11.722Z,36.75
2018-02-19T13:20:39.331Z,30.35
2018-02-19T13:23:07.693Z,27.42
2018-02-19T13:25:35.237Z,29.00
2018-02-19T13:28:02.831Z,27.85
2018-02-19T13:30:31.162Z,24.75
2018-02-19T13:32:58.908Z,28.35
2018-02-19T13:35:26.515Z,32.20
2018-02-19T13:37:54.199Z,34.30
2018-02-19T13:40:22.537Z,30.52
2018-02-19T13:42:50.126Z,30.10
2018-02-19T13:45:18.462Z,29.27
2018-02-19T13:47:46.251Z,36.05
2018-02-19T13:50:13.890Z,35.17
2018-02-19T13:52:41.464Z,29.65
2018-02-19T13:55:09.847Z,33.25
2018-02-19T13:57:38.194Z,31.27
2018-02-19T14:00:05.835Z,33.03
2018-02-19T14:02:33.506Z,32.45
2018-02-19T14:05:01.155Z,36.40
2018-02-19T14:07:28.718Z,31.30
2018-02-19T14:09:56.315Z,35.72
2018-02-19T14:12:23.898Z,33.95
2018-02-19T14:14:52.272Z,35.63
2018-02-19T14:17:20.637Z,33.92
2018-02-19T14:19:48.209Z,32.10
2018-02-19T14:22:16.682Z,30.40
2018-02-19T14:24:45.052Z,33.47
2018-02-19T14:27:13.419Z,35.05
2018-02-19T14:29:41.007Z,33.83
2018-02-19T14:32:09.367Z,38.38
2018-02-19T14:34:36.944Z,35.17
2018-02-19T14:37:05.291Z,43.58
2018-02-19T14:39:32.873Z,32.38
2018-02-19T14:42:01.244Z,36.42
2018-02-19T14:44:29.766Z,34.58
2018-02-19T14:46:57.470Z,38.35
2018-02-19T14:49:25.115Z,37.63
2018-02-19T14:51:52.803Z,40.95
2018-02-19T14:54:21.849Z,39.80
2018-02-19T14:56:49.642Z,37.88
2018-02-19T14:59:17.258Z,35.05
2018-02-19T15:01:44.881Z,38.88
2018-02-19T15:04:13.263Z,43.15
2018-02-19T15:06:41.634Z,37.40
2018-02-19T15:09:10.016Z,33.70
2018-02-19T15:11:38.407Z,39.70
2018-02-19T15:14:06.003Z,38.75
2018-02-19T15:16:33.730Z,36.13
2018-02-19T15:19:02.087Z,44.60
2018-02-19T15:21:30.496Z,37.80
2018-02-19T15:23:58.161Z,37.35
2018-02-19T15:26:25.724Z,36.47
2018-02-19T15:28:53.319Z,32.22
2018-02-19T15:31:20.900Z,36.35
2018-02-19T15:33:49.279Z,37.63
2018-02-19T15:36:17.638Z,36.10
2018-02-19T15:38:45.399Z,37.33
2018-02-19T15:41:12.974Z,34.65
2018-02-19T15:43:40.581Z,34.40
2018-02-19T15:46:08.210Z,42.03
2018-02-19T15:48:36.711Z,34.00
2018-02-19T15:51:04.298Z,41.83
2018-02-19T15:53:31.903Z,40.25
2018-02-19T15:56:00.379Z,39.83
2018-02-19T15:58:28.866Z,42.05
2018-02-19T16:00:56.398Z,44.40
2018-02-19T16:03:24.175Z,41.22
2018-02-19T16:05:52.710Z,40.92
2018-02-19T16:08:20.406Z,41.60
2018-02-19T16:10:48.002Z,36.83
2018-02-19T16:13:15.562Z,36.33
2018-02-19T16:15:43.183Z,39.33
2018-02-19T16:18:10.744Z,39.47
2018-02-19T16:20:38.824Z,37.85
2018-02-19T16:23:07.182Z,39.20
2018-02-19T16:25:34.774Z,40.28
2018-02-19T16:28:03.127Z,36.22
2018-02-19T16:30:30.703Z,43.03
2018-02-19T16:32:59.157Z,37.08
2018-02-19T16:35:26.735Z,42.65
2018-02-19T16:37:55.176Z,41.17
2018-02-19T16:40:22.749Z,38.30
2018-02-19T16:42:50.319Z,40.72
2018-02-19T16:45:18.063Z,39.47
2018-02-19T16:47:45.631Z,40.85
2018-02-19T16:50:13.267Z,41.75
2018-02-19T16:52:40.818Z,39.88
2018-02-19T16:55:08.433Z,43.63
2018-02-19T16:57:36.763Z,40.92
2018-02-19T17:00:04.328Z,44.72
2018-02-19T17:02:31.927Z,43.75
2018-02-19T17:05:00.298Z,43.72
2018-02-19T17:07:28.639Z,48.95
2018-02-19T17:09:56.234Z,42.97
2018-02-19T17:12:24.709Z,53.00
2018-02-19T17:14:52.311Z,44.72
2018-02-19T17:17:19.907Z,45.60
2018-02-19T17:19:47.470Z,43.22
2018-02-19T17:22:15.058Z,36.95
2018-02-19T17:24:43.392Z,41.05
2018-02-19T17:27:11.015Z,41.40
2018-02-19T17:29:38.578Z,47.13
2018-02-19T17:32:06.148Z,47.62
2018-02-19T17:34:33.759Z,45.75
2018-02-19T17:37:02.107Z,39.97
2018-02-19T17:39:29.731Z,45.47
2018-02-19T17:41:57.304Z,37.17
2018-02-19T17:44:24.902Z,49.80
2018-02-19T17:46:52.479Z,46.22
2018-02-19T17:49:20.828Z,41.30
2018-02-19T17:51:48.387Z,50.35
2018-02-19T17:54:15.985Z,46.03
2018-02-19T17:56:43.571Z,42.88
2018-02-19T17:59:11.162Z,44.60
2018-02-19T18:01:38.771Z,40.40
2018-02-19T18:04:06.354Z,46.50
2018-02-19T18:06:33.956Z,41.55
2018-02-19T18:09:01.559Z,44.85
2018-02-19T18:11:29.280Z,43.95
2018-02-19T18:13:57.615Z,47.08
2018-02-19T18:16:25.211Z,43.30
2018-02-19T18:18:52.776Z,44.75
2018-02-19T18:21:21.156Z,47.30
2018-02-19T18:23:49.650Z,41.75
2018-02-19T18:26:17.255Z,43.15
2018-02-19T18:28:44.880Z,51.58
2018-02-19T18:31:12.459Z,47.35
2018-02-19T18:33:40.024Z,45.60
2018-02-19T18:36:07.652Z,42.40
2018-02-19T18:38:35.236Z,48.00
2018-02-19T18:41:02.845Z,58.53
2018-02-19T18:43:30.486Z,45.03
2018-02-19T18:45:58.535Z,49.70
2018-02-19T18:48:26.104Z,48.90
2018-02-19T18:50:54.615Z,48.22
2018-02-19T18:53:22.957Z,43.87
2018-02-19T18:55:50.535Z,44.45
2018-02-19T18:58:18.207Z,40.45
2018-02-19T19:00:45.791Z,45.47
2018-02-19T19:03:13.441Z,48.42
2018-02-19T19:05:41.847Z,45.65
2018-02-19T19:08:21.171Z,50.53
2018-02-19T19:10:56.516Z,49.95
2018-02-19T19:13:24.109Z,49.33
2018-02-19T19:15:51.691Z,44.20
2018-02-19T19:18:19.313Z,49.17
2018-02-19T19:20:46.903Z,46.30
2018-02-19T19:23:14.470Z,48.40
2018-02-19T19:25:42.064Z,45.80
2018-02-19T19:28:09.636Z,47.15
2018-02-19T19:30:37.263Z,47.40
2018-02-19T19:33:05.696Z,42.70
2018-02-19T19:35:33.316Z,45.55
2018-02-19T19:38:00.895Z,46.40
2018-02-19T19:40:28.458Z,52.03
2018-02-19T19:42:56.066Z,46.35
2018-02-19T19:45:23.636Z,46.97
2018-02-19T19:47:52.106Z,44.33
2018-02-19T19:50:20.484Z,49.60
2018-02-19T19:52:48.827Z,51.00
2018-02-19T19:55:16.410Z,46.30
2018-02-19T19:57:44.020Z,52.67
2018-02-19T20:00:11.602Z,47.67
2018-02-19T20:02:40.299Z,45.38
2018-02-19T20:05:07.887Z,46.45
2018-02-19T20:07:36.263Z,46.55
2018-02-19T20:10:04.710Z,42.88
2018-02-19T20:12:32.335Z,49.22
2018-02-19T20:15:00.016Z,45.05
2018-02-19T20:17:27.600Z,45.28
2018-02-19T20:19:55.212Z,43.87
2018-02-19T20:22:22.879Z,46.45
2018-02-19T20:24:50.533Z,46.10
2018-02-19T20:27:18.148Z,52.20
2018-02-19T20:29:46.519Z,50.35
2018-02-19T20:32:14.086Z,49.38
2018-02-19T20:34:41.695Z,49.03
2018-02-19T20:37:09.294Z,52.53
2018-02-19T20:39:36.871Z,45.40
2018-02-19T20:42:05.338Z,46.55
2018-02-19T20:44:32.945Z,50.25
2018-02-19T20:47:00.615Z,46.65
2018-02-19T20:49:28.402Z,47.72
2018-02-19T20:51:56.211Z,53.17
2018-02-19T20:54:24.551Z,46.92
2018-02-19T20:56:52.153Z,46.08
2018-02-19T20:59:19.727Z,53.00
2018-02-19T21:01:47.336Z,50.50
2018-02-19T21:04:14.941Z,52.17
2018-02-19T21:06:42.595Z,48.30
2018-02-19T21:09:10.375Z,51.47
2018-02-19T21:11:37.999Z,47.78
2018-02-19T21:14:06.387Z,50.65
2018-02-19T21:16:34.030Z,48.65
2018-02-19T21:19:02.403Z,55.45
2018-02-19T21:21:29.980Z,51.97
2018-02-19T21:23:58.382Z,49.53
2018-02-19T21:26:25.982Z,49.47
2018-02-19T21:28:53.567Z,44.97
2018-02-19T21:31:21.955Z,47.15
2018-02-19T21:33:50.295Z,59.15
2018-02-19T21:36:18.034Z,47.45
2018-02-19T21:38:45.639Z,47.22
2018-02-19T21:41:14.000Z,54.17
2018-02-19T21:43:41.572Z,53.83
2018-02-19T21:46:09.927Z,53.33
2018-02-19T21:48:37.541Z,52.65
2018-02-19T21:51:05.892Z,52.35
2018-02-19T21:53:34.250Z,49.85
2018-02-19T21:56:01.808Z,49.72
2018-02-19T21:58:29.395Z,49.65
2018-02-19T22:00:57.732Z,52.75
2018-02-19T22:03:25.336Z,46.88
2018-02-19T22:05:52.915Z,48.97
2018-02-19T22:08:20.526Z,45.60
2018-02-19T22:10:48.110Z,51.10
2018-02-19T22:13:15.672Z,52.47
2018-02-19T22:15:43.276Z,51.45
2018-02-19T22:18:10.849Z,55.80
2018-02-19T22:20:38.568Z,57.03
2018-02-19T22:23:06.223Z,53.87
2018-02-19T22:25:33.854Z,58.65
2018-02-19T22:28:02.232Z,48.95
2018-02-19T22:30:30.606Z,51.15
2018-02-19T22:32:59.043Z,57.17
2018-02-19T22:35:26.638Z,49.83
2018-02-19T22:37:54.192Z,53.40
2018-02-19T22:40:21.782Z,54.72
2018-02-19T22:42:49.401Z,54.30
2018-02-19T22:45:17.011Z,50.05
2018-02-19T22:47:44.588Z,54.03
2018-02-19T22:50:12.235Z,53.45
2018-02-19T22:52:39.794Z,45.95
2018-02-19T22:55:07.359Z,51.33
2018-02-19T22:57:34.951Z,54.22
2018-02-19T23:00:02.572Z,60.40
2018-02-19T23:02:30.183Z,57.62
2018-02-19T23:04:57.739Z,55.20
2018-02-19T23:07:25.316Z,51.40
2018-02-19T23:09:53.686Z,53.22
2018-02-19T23:12:22.033Z,53.78
2018-02-19T23:14:49.635Z,50.58
2018-02-19T23:17:18.246Z,50.17
2018-02-19T23:19:45.803Z,46.47
2018-02-19T23:22:13.525Z,43.58
2018-02-19T23:24:41.864Z,51.55
2018-02-19T23:27:09.553Z,49.03
2018-02-19T23:29:37.288Z,55.30
2018-02-19T23:32:04.882Z,52.92
2018-02-19T23:34:33.262Z,49.17
2018-02-19T23:37:01.611Z,48.45
2018-02-19T23:39:29.263Z,51.70
2018-02-19T23:41:56.951Z,51.65
2018-02-19T23:44:24.611Z,48.30
2018-02-19T23:46:52.199Z,51.92
2018-02-19T23:49:19.770Z,55.70
2018-02-19T23:51:47.343Z,50.35
2018-02-19T23:54:19.790Z,49.05
2018-02-19T23:56:47.406Z,53.63
2018-02-19T23:59:14.970Z,51.60
